Knickerbocker — WDC7987 — position and weather

sailwx.info

Track history (hours):
 
Tides and Currents Weather Stations Pressure Air Temp Water Temp Dewpoint Dewpoint Depression Visibility Wind Speed Wind Dir Waves Ship Positions

Knickerbocker

Owner: Christopher Corp., Newport, RI. More information available from US FCC via Universal Licensing System and Coast Guard Vessel Documentation Center.

Last reported at 2015-Mar-27 20:34 UTC. Time now 2015-Mar-28 14:19 UTC.
Position N 18°18' W 064°53'.

Length 36 m; draft 3.6 m.

Type: Pleasure craft. MMSI: 367079960.

Date/timePositionNaut miles runAvg speedWind from/ knotsBaromVisibWave heightAir tempDewpointWater temp
2015-Mar-27 20:34N 18°18' W 064°53'5 4.8
2015-Mar-27 19:28N 18°21' W 064°48'0 0.0
2015-Mar-27 18:28N 18°21' W 064°48'0 0.0
2015-Mar-27 17:28N 18°21' W 064°48'0 0.0
2015-Mar-27 16:22N 18°21' W 064°48'0 0.0
2015-Mar-27 15:22N 18°21' W 064°48'0 0.0
2015-Mar-27 14:28N 18°21' W 064°48'3 3.0
2015-Mar-27 13:33N 18°22' W 064°45'0 0.3
2015-Mar-27 12:30N 18°22' W 064°45'0 0.0
2015-Mar-27 11:33N 18°22' W 064°45'0 0.0
2015-Mar-27 10:20N 18°22' W 064°45'0 0.0
2015-Mar-27 09:33N 18°22' W 064°45'0 0.0
2015-Mar-27 08:33N 18°22' W 064°45'0 0.0
2015-Mar-27 07:33N 18°22' W 064°45'0 0.0
2015-Mar-27 06:33N 18°22' W 064°45'0 0.0
2015-Mar-27 05:33N 18°22' W 064°45'0 0.0
2015-Mar-27 04:34N 18°22' W 064°45'0 0.0
2015-Mar-27 03:33N 18°22' W 064°45'0 0.0
2015-Mar-27 02:33N 18°22' W 064°45'0 0.0
2015-Mar-27 01:33N 18°22' W 064°45'0 0.0
2015-Mar-27 00:33N 18°22' W 064°45'0 0.0
2015-Mar-26 23:33N 18°22' W 064°45'0 0.0
2015-Mar-26 22:20N 18°22' W 064°45'5 5.9
2015-Mar-26 21:32N 18°22' W 064°40'5 3.9
2015-Mar-26 20:11N 18°21' W 064°35'0 0.0
2015-Mar-26 18:23N 18°21' W 064°35'0 0.0
2015-Mar-26 17:29N 18°21' W 064°35'0 0.0
2015-Mar-26 16:29N 18°21' W 064°35'0 0.0
2015-Mar-26 15:29N 18°21' W 064°35'0 0.0
2015-Mar-25 19:28N 18°21' W 064°35'0 0.0
2015-Mar-25 18:33N 18°21' W 064°35'1 0.0
2015-Mar-24 21:27N 18°21' W 064°35'7 7.2
2015-Mar-24 20:32N 18°26' W 064°30'3 0.1
2015-Mar-23 19:12N 18°26' W 064°27'1 0.9
2015-Mar-23 18:33N 18°26' W 064°27'0 0.0
2015-Mar-23 17:33N 18°26' W 064°27'0 0.0
2015-Mar-23 16:33N 18°26' W 064°27'1 1.2
2015-Mar-23 15:34N 18°25' W 064°28'12 0.5
2015-Mar-22 15:14N 18°21' W 064°40'5 7.1
2015-Mar-22 14:33N 18°22' W 064°45'0 0.0
2015-Mar-22 13:33N 18°22' W 064°45'0 0.0
2015-Mar-22 12:33N 18°22' W 064°45'0 0.0
2015-Mar-22 11:33N 18°22' W 064°45'0 0.0
2015-Mar-22 10:33N 18°22' W 064°45'0 0.0
2015-Mar-22 09:33N 18°22' W 064°45'0 0.0
2015-Mar-22 08:33N 18°22' W 064°45'0 0.0
2015-Mar-22 07:33N 18°22' W 064°45'0 0.0
2015-Mar-22 06:33N 18°22' W 064°45'0 0.0
2015-Mar-22 05:33N 18°22' W 064°45'0 0.0
2015-Mar-22 04:33N 18°22' W 064°45'0 0.0
2015-Mar-22 03:33N 18°22' W 064°45'0 0.0
2015-Mar-22 02:33N 18°22' W 064°45'0 0.0
2015-Mar-22 01:33N 18°22' W 064°45'0 0.0
2015-Mar-22 00:33N 18°22' W 064°45'0 0.0
2015-Mar-21 23:33N 18°22' W 064°45'7 6.4
2015-Mar-21 22:28N 18°18' W 064°51'1 0.0
2015-Mar-19 21:33N 18°17' W 064°52'  
Track history (hours):
 
Tides and Currents Weather Stations Pressure Air Temp Water Temp Dewpoint Dewpoint Depression Visibility Wind Speed Wind Dir Waves Ship Positions

Knickerbocker

Owner: Christopher Corp., Newport, RI. More information available from US FCC via Universal Licensing System and Coast Guard Vessel Documentation Center.

Last reported at 2015-Mar-27 20:34 UTC. Time now 2015-Mar-28 14:19 UTC.
Position N 18°18' W 064°53'.

Length 36 m; draft 3.6 m.

Type: Pleasure craft. MMSI: 367079960.

Date/timePositionNaut miles runAvg speedWind from/ knotsBaromVisibWave heightAir tempDewpointWater temp
2015-Mar-27 20:34N 18°18' W 064°53'5 4.8
2015-Mar-27 19:28N 18°21' W 064°48'0 0.0
2015-Mar-27 18:28N 18°21' W 064°48'0 0.0
2015-Mar-27 17:28N 18°21' W 064°48'0 0.0
2015-Mar-27 16:22N 18°21' W 064°48'0 0.0
2015-Mar-27 15:22N 18°21' W 064°48'0 0.0
2015-Mar-27 14:28N 18°21' W 064°48'3 3.0
2015-Mar-27 13:33N 18°22' W 064°45'0 0.3
2015-Mar-27 12:30N 18°22' W 064°45'0 0.0
2015-Mar-27 11:33N 18°22' W 064°45'0 0.0
2015-Mar-27 10:20N 18°22' W 064°45'0 0.0
2015-Mar-27 09:33N 18°22' W 064°45'0 0.0
2015-Mar-27 08:33N 18°22' W 064°45'0 0.0
2015-Mar-27 07:33N 18°22' W 064°45'0 0.0
2015-Mar-27 06:33N 18°22' W 064°45'0 0.0
2015-Mar-27 05:33N 18°22' W 064°45'0 0.0
2015-Mar-27 04:34N 18°22' W 064°45'0 0.0
2015-Mar-27 03:33N 18°22' W 064°45'0 0.0
2015-Mar-27 02:33N 18°22' W 064°45'0 0.0
2015-Mar-27 01:33N 18°22' W 064°45'0 0.0
2015-Mar-27 00:33N 18°22' W 064°45'0 0.0
2015-Mar-26 23:33N 18°22' W 064°45'0 0.0
2015-Mar-26 22:20N 18°22' W 064°45'5 5.9
2015-Mar-26 21:32N 18°22' W 064°40'5 3.9
2015-Mar-26 20:11N 18°21' W 064°35'0 0.0
2015-Mar-26 18:23N 18°21' W 064°35'0 0.0
2015-Mar-26 17:29N 18°21' W 064°35'0 0.0
2015-Mar-26 16:29N 18°21' W 064°35'0 0.0
2015-Mar-26 15:29N 18°21' W 064°35'0 0.0
2015-Mar-25 19:28N 18°21' W 064°35'0 0.0
2015-Mar-25 18:33N 18°21' W 064°35'1 0.0
2015-Mar-24 21:27N 18°21' W 064°35'7 7.2
2015-Mar-24 20:32N 18°26' W 064°30'3 0.1
2015-Mar-23 19:12N 18°26' W 064°27'1 0.9
2015-Mar-23 18:33N 18°26' W 064°27'0 0.0
2015-Mar-23 17:33N 18°26' W 064°27'0 0.0
2015-Mar-23 16:33N 18°26' W 064°27'1 1.2
2015-Mar-23 15:34N 18°25' W 064°28'12 0.5
2015-Mar-22 15:14N 18°21' W 064°40'5 7.1
2015-Mar-22 14:33N 18°22' W 064°45'0 0.0
2015-Mar-22 13:33N 18°22' W 064°45'0 0.0
2015-Mar-22 12:33N 18°22' W 064°45'0 0.0
2015-Mar-22 11:33N 18°22' W 064°45'0 0.0
2015-Mar-22 10:33N 18°22' W 064°45'0 0.0
2015-Mar-22 09:33N 18°22' W 064°45'0 0.0
2015-Mar-22 08:33N 18°22' W 064°45'0 0.0
2015-Mar-22 07:33N 18°22' W 064°45'0 0.0
2015-Mar-22 06:33N 18°22' W 064°45'0 0.0
2015-Mar-22 05:33N 18°22' W 064°45'0 0.0
2015-Mar-22 04:33N 18°22' W 064°45'0 0.0
2015-Mar-22 03:33N 18°22' W 064°45'0 0.0
2015-Mar-22 02:33N 18°22' W 064°45'0 0.0
2015-Mar-22 01:33N 18°22' W 064°45'0 0.0
2015-Mar-22 00:33N 18°22' W 064°45'0 0.0
2015-Mar-21 23:33N 18°22' W 064°45'7 6.4
2015-Mar-21 22:28N 18°18' W 064°51'1 0.0
2015-Mar-19 21:33N 18°17' W 064°52'  

Dump ship's entire track history